Flight Track Log - Related Links

Times and Time Zones

All times are in EDT time to prevent confusion due to time zone crossing. See the SKW6345 flight status page for this flight to view local times or setup timezone preferences in your user account.

Time Position Orientation Groundspeed Altitude Reporting Facility
EDT Latitude Longitude Course Direction KTS MPH feet Rate Location/Type
Fri 09:14:00 AM 44.1418 -108.6789 159° South  Level FlightAware Approximate
Fri 09:14:13 AM 44.5047 -109.0594 158° South 191 220 6,000  Level Salt Lake Center
Fri 09:15:00 AM 44.0358 -108.6209 159° South  Level FlightAware Approximate
Fri 09:15:14 AM 44.4578 -109.0578 179° South 214 246 8,000  Level Salt Lake Center
Fri 09:16:00 AM 43.9300 -108.5619 157° South  Level FlightAware Approximate
Fri 09:16:15 AM 44.4358 -108.9728 110° East 236 272 9,900  Level Salt Lake Center
Fri 09:17:00 AM 43.8250 -108.5006 157° South  Level FlightAware Approximate
Fri 09:17:16 AM 44.4117 -108.8531 106° East 268 308 12,200  Level Salt Lake Center
Fri 09:18:00 AM 43.7198 -108.4398 157° South  Level FlightAware Approximate
Fri 09:18:16 AM 44.3367 -108.7931 150° Southeast 314 361 13,900  Level Salt Lake Center
Fri 09:19:00 AM 43.6146 -108.3796 158° South  Level FlightAware Approximate
Fri 09:19:17 AM 44.2506 -108.7522 161° South 336 387 15,600  Level Salt Lake Center
Fri 09:20:18 AM 44.1478 -108.6928 157° South 354 407 17,800 1,672 Climbing Salt Lake Center
Fri 09:21:19 AM 44.0589 -108.6425 158° South 358 412 19,000 1,328 Climbing Salt Lake Center
Fri 09:22:20 AM 43.9678 -108.5894 157° South 367 422 20,500 1,377 Climbing Salt Lake Center
Fri 09:23:21 AM 43.8594 -108.5289 158° South 375 432 21,800 1,131 Climbing Salt Lake Center
Fri 09:24:22 AM 43.7622 -108.4750 158° South 388 447 22,800 1,180 Climbing Salt Lake Center
Fri 09:25:23 AM 43.6458 -108.4081 157° South 401 461 24,200 1,131 Climbing Salt Lake Center
Fri 09:26:24 AM 43.5453 -108.3506 157° South 408 470 25,100 787 Climbing Salt Lake Center
Fri 09:27:25 AM 43.4450 -108.2861 155° Southeast 413 475 25,800 590 Climbing Salt Lake Center
Fri 09:28:26 AM 43.3394 -108.1733 142° Southeast 429 494 26,300 492 Climbing Salt Lake Center
Fri 09:29:27 AM 43.2469 -108.0756 142° Southeast 435 501 26,800 492 Climbing Salt Lake Center
Fri 09:30:28 AM 43.1539 -107.9764 142° Southeast 440 506 27,300 541 Climbing Salt Lake Center
Fri 09:31:29 AM 43.0428 -107.8594 142° Southeast 449 517 27,900 639 Climbing Salt Lake Center
Fri 09:32:30 AM 42.9500 -107.7594 142° Southeast 445 512 28,600 689 Climbing Salt Lake Center
Fri 09:33:31 AM 42.8469 -107.6522 143° Southeast 446 513 29,300 689 Climbing Salt Lake Center
Fri 09:34:32 AM 42.7539 -107.5539 142° Southeast 442 509 30,000 738 Climbing Salt Lake Center
Fri 09:35:33 AM 42.6444 -107.4425 143° Southeast 440 506 30,800 492 Climbing Salt Lake Center
Fri 09:36:34 AM 42.5522 -107.3453 142° Southeast 438 504 31,000 140 Climbing Salt Lake Center
Fri 09:36:59 AM 42.5061 -107.2956 142° Southeast 440 506 31,000  Level Denver Center
Fri 09:38:00 AM 42.4106 -107.1936 142° Southeast 453 521 31,000  Level Denver Center
Fri 09:39:01 AM 42.3136 -107.0925 142° Southeast 458 527 31,000  Level Denver Center
Fri 09:40:02 AM 42.2031 -106.9750 142° Southeast 453 521 31,000  Level Denver Center
Fri 09:41:03 AM 42.1064 -106.8744 142° Southeast 457 526 31,000  Level Denver Center
Fri 09:42:03 AM 42.0111 -106.7747 142° Southeast 453 521 31,000  Level Denver Center
Fri 09:43:04 AM 41.8994 -106.6578 142° Southeast 453 521 31,000  Level Denver Center
Fri 09:44:05 AM 41.8033 -106.5592 143° Southeast 452 520 31,000  Level Denver Center
Fri 09:45:06 AM 41.6942 -106.4475 143° Southeast 456 525 31,000  Level Denver Center
Fri 09:46:07 AM 41.5986 -106.3497 143° Southeast 453 521 31,000  Level Denver Center
Fri 09:47:20 AM 41.5039 -106.2517 142° Southeast 450 518 31,000  Level Denver Center
Fri 09:48:22 AM 41.3772 -106.1217 142° Southeast 450 518 31,000  Level Denver Center
Fri 09:49:23 AM 41.2817 -106.0267 143° Southeast 449 517 31,000  Level Denver Center
Fri 09:50:24 AM 41.1697 -105.9131 143° Southeast 454 522 31,000  Level Denver Center
Fri 09:51:25 AM 41.0747 -105.8181 143° Southeast 449 517 31,000 -639 Level Denver Center
Fri 09:52:26 AM 40.9694 -105.7128 143° Southeast 454 522 29,700 -1,525 Descending Denver Center
Fri 09:53:27 AM 40.8694 -105.6119 143° Southeast 449 517 27,900 -1,820 Descending Denver Center
Fri 09:54:28 AM 40.7689 -105.5114 143° Southeast 449 517 26,000 -1,918 Descending Denver Center
Fri 09:55:29 AM 40.6678 -105.4128 143° Southeast 448 516 24,000 -2,016 Descending Denver Center
Fri 09:56:30 AM 40.5728 -105.3178 143° Southeast 430 495 21,900 -1,721 Descending Denver Center
Fri 09:57:31 AM 40.4850 -105.2308 143° Southeast 395 455 20,500 -1,475 Descending Denver Center
Fri 09:58:32 AM 40.3942 -105.1597 149° Southeast 347 399 18,900 -1,426 Descending Denver Center
Fri 09:59:33 AM 40.3131 -105.0931 148° Southeast 347 399 17,600 -1,328 Descending Denver Center
Fri 10:00:34 AM 40.2339 -105.0311 149° Southeast 333 383 16,200 -1,171 Descending Denver Center
Fri 10:01:36 AM 40.1567 -104.9689 148° Southeast 327 376 15,200 -976 Descending Denver Center
Fri 10:02:37 AM 40.0761 -104.9053 149° Southeast 315 362 14,200 -984 Descending Denver Center
Fri 10:03:38 AM 40.0033 -104.8469 148° Southeast 307 353 13,200 -984 Descending Denver Center
Fri 10:04:39 AM 39.9250 -104.8058 158° South 311 358 12,200 -1,033 Descending Denver Center
Fri 10:05:40 AM 39.8328 -104.8083 181° South 313 360 11,100 -639 Descending Denver Center
Fri 10:06:41 AM 39.7522 -104.8108 181° South 282 325 10,900 -780 Descending Denver Center
Fri 10:07:43 AM 39.6847 -104.7950 170° South 253 291 9,500 -1,073 Descending Denver Center
Fri 10:08:44 AM 39.6875 -104.7164 87° East 223 257 8,700 -787 Descending Denver Center

Login

Don't have an account? Register now (free) for customized features, flight alerts, and more!